Time;durP1;ratioP1;P1;durP2;ratioP2;P2;SDS_P1;SDS_P2;PMS_P1;PMS_P2;Temp;Humidity;BMP_temperature;BMP_pressure;BME280_temperature;BME280_humidity;BME280_pressure;Samples;Min_cycle;Max_cycle;Signal;HPM_P1;HPM_P2
2023/04/05 00:02:09;;;;;;;;;28.50;26.00;;;;;10.80;40.01;101851.53;5061151;28;45299;-64
2023/04/05 00:04:35;;;;;;;;;32.75;25.50;;;;;10.78;40.21;101848.00;5060785;28;45525;-64
2023/04/05 00:07:01;;;;;;;;;31.00;30.00;;;;;10.75;40.40;101856.78;5060657;28;46973;-64
2023/04/05 00:09:27;;;;;;;;;22.00;19.75;;;;;10.71;40.15;101852.38;5059188;28;45418;-64
2023/04/05 00:11:53;;;;;;;;;28.75;23.75;;;;;10.68;40.12;101861.16;5060967;28;45399;-64
2023/04/05 00:14:18;;;;;;;;;35.25;30.25;;;;;10.65;40.21;101852.38;5060638;28;45223;-64
2023/04/05 00:16:44;;;;;;;;;29.75;24.00;;;;;10.64;40.21;101855.84;5060764;28;46025;-64
2023/04/05 00:19:12;;;;;;;;;28.50;26.50;;;;;10.60;40.26;101857.59;5059034;28;45395;-64
2023/04/05 00:21:38;;;;;;;;;26.00;23.25;;;;;10.56;40.27;101856.75;5060669;28;45306;-64
2023/04/05 00:24:04;;;;;;;;;28.50;23.00;;;;;10.55;40.29;101857.59;5060526;28;45306;-64
2023/04/05 00:26:29;;;;;;;;;25.75;23.75;;;;;10.54;40.30;101868.09;5060507;28;46498;-64
2023/04/05 00:28:54;;;;;;;;;21.25;19.25;;;;;10.52;40.34;101864.59;5060166;28;45244;-64
2023/04/05 00:31:20;;;;;;;;;26.25;23.00;;;;;10.48;40.20;101861.06;5060721;28;45380;-64
2023/04/05 00:33:46;;;;;;;;;27.00;23.00;;;;;10.46;40.39;101861.94;5060450;28;45248;-64
2023/04/05 00:36:15;;;;;;;;;21.25;18.50;;;;;10.44;40.47;101854.06;5059917;28;45273;-63
2023/04/05 00:38:42;;;;;;;;;22.50;22.25;;;;;10.39;40.45;101856.66;5060149;28;45493;-64
2023/04/05 00:41:09;;;;;;;;;21.25;20.00;;;;;10.38;40.68;101860.16;5059033;28;45387;-64
2023/04/05 00:43:34;;;;;;;;;24.75;22.50;;;;;10.35;40.61;101857.50;5047110;28;45236;-64
2023/04/05 00:46:04;;;;;;;;;23.75;22.00;;;;;10.33;40.54;101853.97;5059842;28;55215;-64
2023/04/05 00:48:30;;;;;;;;;25.75;23.75;;;;;10.30;40.46;101845.19;5060065;28;45419;-64
2023/04/05 00:50:57;;;;;;;;;22.75;19.25;;;;;10.28;40.49;101849.56;5059895;28;45319;-64
2023/04/05 00:53:22;;;;;;;;;26.25;25.25;;;;;10.23;40.79;101855.66;5059846;28;45558;-63
2023/04/05 00:55:49;;;;;;;;;27.00;23.75;;;;;10.21;40.64;101853.91;5060005;28;45331;-63
2023/04/05 00:58:18;;;;;;;;;23.00;21.50;;;;;10.19;40.74;101853.91;5059661;28;45327;-64
2023/04/05 01:00:52;;;;;;;;;16.75;16.50;;;;;10.18;40.76;101851.28;5060002;28;45264;-64
2023/04/05 01:03:19;;;;;;;;;27.00;22.75;;;;;10.14;40.72;101850.38;5060214;28;45310;-64
2023/04/05 01:06:26;;;;;;;;;27.25;23.75;;;;;10.12;40.79;101851.22;5059639;28;45560;-64
2023/04/05 01:09:05;;;;;;;;;25.00;24.25;;;;;10.08;40.73;101840.69;5059729;28;45430;-64
2023/04/05 01:11:32;;;;;;;;;26.75;22.50;;;;;10.06;40.58;101837.19;5060053;28;45513;-63
2023/04/05 01:14:01;;;;;;;;;26.75;24.25;;;;;10.03;40.88;101839.78;5059917;28;45566;-64
2023/04/05 01:16:27;;;;;;;;;25.75;21.75;;;;;10.00;40.72;101839.78;5059951;28;45416;-63
2023/04/05 01:18:55;;;;;;;;;24.75;20.75;;;;;9.99;40.72;101838.03;5059509;28;45355;-63
2023/04/05 01:21:33;;;;;;;;;20.50;19.75;;;;;9.99;40.69;101837.16;5059862;28;45422;-63
2023/04/05 01:24:21;;;;;;;;;28.75;27.75;;;;;9.97;40.83;101834.50;5059719;28;45395;-63
2023/04/05 01:27:02;;;;;;;;;30.25;27.25;;;;;9.94;40.77;101834.50;5059576;28;46949;-64
2023/04/05 01:29:45;;;;;;;;;30.25;28.50;;;;;9.92;40.79;101830.97;5059606;28;45284;-64
2023/04/05 01:32:26;;;;;;;;;26.75;20.50;;;;;9.90;40.88;101822.22;5059842;28;45238;-64
2023/04/05 01:35:00;;;;;;;;;28.50;23.25;;;;;9.87;41.02;101822.19;5059569;28;45323;-64
2023/04/05 01:37:31;;;;;;;;;26.25;26.00;;;;;9.85;40.83;101818.66;5059655;28;45422;-64
2023/04/05 01:39:58;;;;;;;;;10.50;6.75;;;;;9.85;41.03;101827.44;5075146;28;45236;-63
2023/04/05 01:42:25;;;;;;;;;28.50;25.00;;;;;9.83;41.01;101818.66;5059682;28;45371;-64
2023/04/05 01:44:52;;;;;;;;;26.75;23.50;;;;;9.82;40.66;101821.28;5059469;28;45301;-64
2023/04/05 01:47:17;;;;;;;;;26.50;21.50;;;;;9.81;40.80;101822.16;5058127;28;46095;-64
2023/04/05 01:49:42;;;;;;;;;16.25;13.75;;;;;9.80;40.72;101816.03;5059236;28;45678;-64
2023/04/05 01:52:08;;;;;;;;;27.00;24.25;;;;;9.79;40.98;101822.16;5059212;28;47428;-64
2023/04/05 01:54:33;;;;;;;;;27.75;25.25;;;;;9.74;41.03;101814.25;5058995;28;51360;-63
2023/04/05 01:56:58;;;;;;;;;23.50;21.50;;;;;9.75;40.83;101810.75;5059123;28;53532;-64
2023/04/05 01:59:24;;;;;;;;;26.50;23.75;;;;;9.75;40.98;101810.75;5059670;28;49188;-64
2023/04/05 02:01:50;;;;;;;;;23.50;23.00;;;;;9.74;41.04;101813.38;5059196;28;49793;-64
2023/04/05 02:04:15;;;;;;;;;27.00;26.00;;;;;9.72;40.94;101809.84;5059339;28;45189;-64
2023/04/05 02:06:41;;;;;;;;;27.00;22.25;;;;;9.71;41.04;101811.63;5061058;28;56734;-64
2023/04/05 02:09:06;;;;;;;;;31.50;26.00;;;;;9.70;40.88;101806.34;5062370;28;45250;-63
2023/04/05 02:11:31;;;;;;;;;15.50;14.75;;;;;9.69;41.20;101805.47;5062760;28;46055;-63
2023/04/05 02:13:57;;;;;;;;;25.75;24.50;;;;;9.67;40.83;101801.97;5062369;28;55174;-64
2023/04/05 02:16:24;;;;;;;;;21.50;19.25;;;;;9.67;41.09;101801.06;5062554;28;45447;-64
2023/04/05 02:18:49;;;;;;;;;21.00;18.50;;;;;9.65;40.87;101795.81;5062532;28;45296;-64
2023/04/05 02:21:15;;;;;;;;;23.25;21.00;;;;;9.64;41.03;101791.44;5062470;28;45394;-64
2023/04/05 02:23:40;;;;;;;;;26.75;22.50;;;;;9.62;41.03;101782.66;5062557;28;45378;-64
2023/04/05 02:26:06;;;;;;;;;22.50;20.25;;;;;9.61;41.17;101780.94;5061032;28;47069;-64
2023/04/05 02:28:31;;;;;;;;;21.00;18.50;;;;;9.58;40.93;101776.53;5062320;28;45435;-63
2023/04/05 02:30:57;;;;;;;;;24.50;21.25;;;;;9.58;41.02;101778.28;5062522;28;45879;-63
2023/04/05 02:33:22;;;;;;;;;23.50;20.25;;;;;9.56;41.45;101780.03;5062444;28;45414;-63
2023/04/05 02:35:49;;;;;;;;;25.00;23.25;;;;;9.54;41.37;101776.50;5061693;28;58473;-63
2023/04/05 02:38:14;;;;;;;;;23.00;21.50;;;;;9.52;41.34;101772.97;5062169;28;45272;-64
2023/04/05 02:40:40;;;;;;;;;24.75;23.00;;;;;9.51;41.18;101766.88;5062352;28;45351;-64
2023/04/05 02:43:06;;;;;;;;;20.25;17.00;;;;;9.48;41.30;101763.34;5062059;28;45478;-64
2023/04/05 02:45:31;;;;;;;;;22.00;20.75;;;;;9.47;41.30;101772.06;5062270;28;45354;-64
2023/04/05 02:47:56;;;;;;;;;28.00;22.50;;;;;9.46;41.50;101770.31;5061927;28;47171;-64
2023/04/05 02:50:22;;;;;;;;;23.50;22.50;;;;;9.44;41.32;101763.31;5062053;28;45395;-64
2023/04/05 02:52:48;;;;;;;;;24.75;22.50;;;;;9.41;41.36;101773.78;5060516;28;45556;-64
2023/04/05 02:55:14;;;;;;;;;24.75;24.00;;;;;9.40;41.18;101772.03;5060793;28;46134;-64
2023/04/05 02:57:40;;;;;;;;;24.00;19.50;;;;;9.38;41.55;101768.53;5043085;28;45664;-64
2023/04/05 03:00:07;;;;;;;;;23.00;22.25;;;;;9.35;41.17;101768.50;5058376;28;45876;-64
2023/04/05 03:02:32;;;;;;;;;22.75;20.75;;;;;9.34;41.14;101766.72;5058328;28;45479;-64
2023/04/05 03:05:01;;;;;;;;;27.00;24.00;;;;;9.31;41.31;101760.59;5058401;28;45516;-64
2023/04/05 03:07:26;;;;;;;;;24.75;22.50;;;;;9.28;41.60;101761.44;5058068;28;45500;-64
2023/04/05 03:09:52;;;;;;;;;25.75;22.00;;;;;9.25;41.40;101756.19;5057607;28;45439;-64
2023/04/05 03:12:18;;;;;;;;;26.00;23.75;;;;;9.25;41.26;101761.44;5057935;28;45365;-64
2023/04/05 03:14:44;;;;;;;;;26.25;24.25;;;;;9.24;41.28;101762.28;5057634;28;46030;-64
2023/04/05 03:17:10;;;;;;;;;25.25;24.00;;;;;9.20;41.36;101768.38;5090596;27;45573;-64
2023/04/05 03:19:35;;;;;;;;;31.00;26.50;;;;;9.20;41.54;101776.25;5057495;28;45448;-65
2023/04/05 03:22:01;;;;;;;;;26.25;19.50;;;;;9.18;41.46;101776.25;5057568;28;53129;-63
2023/04/05 03:24:26;;;;;;;;;23.25;21.00;;;;;9.16;41.75;101777.97;5058617;27;45390;-63
2023/04/05 03:26:51;;;;;;;;;20.75;17.50;;;;;9.16;41.54;101785.84;5056769;28;52347;-63
2023/04/05 03:29:17;;;;;;;;;25.00;21.25;;;;;9.14;41.50;101789.31;5061203;28;45253;-63
2023/04/05 03:31:44;;;;;;;;;23.50;22.25;;;;;9.13;41.58;101787.56;5094158;27;45347;-63
2023/04/05 03:34:09;;;;;;;;;27.50;24.75;;;;;9.09;41.67;101779.69;5061162;28;45402;-63
2023/04/05 03:36:44;;;;;;;;;23.00;21.75;;;;;9.08;41.74;101775.28;5060877;28;45316;-63
2023/04/05 03:39:12;;;;;;;;;26.50;25.25;;;;;9.05;41.77;101777.88;5061845;27;45358;-63
2023/04/05 03:41:39;;;;;;;;;30.00;25.75;;;;;9.05;41.45;101777.88;5061163;28;45352;-63
2023/04/05 03:44:05;;;;;;;;;25.00;23.00;;;;;9.02;41.69;101777.84;5061112;28;46957;-63
2023/04/05 03:46:30;;;;;;;;;28.00;24.75;;;;;9.01;41.72;101767.38;5060853;28;45478;-63
2023/04/05 03:48:56;;;;;;;;;43.00;36.25;;;;;8.96;41.74;101764.69;5061037;28;45601;-63
2023/04/05 03:51:21;;;;;;;;;26.00;24.25;;;;;8.97;41.90;101770.78;5060797;28;46496;-63
2023/04/05 03:53:47;;;;;;;;;31.25;25.00;;;;;8.95;41.97;101768.16;5061094;28;45447;-63
2023/04/05 03:56:13;;;;;;;;;26.25;22.75;;;;;8.92;41.73;101762.91;5060946;28;45281;-63
2023/04/05 03:58:39;;;;;;;;;26.50;21.00;;;;;8.89;41.83;101758.53;5060729;28;45450;-63
2023/04/05 04:01:05;;;;;;;;;34.25;26.00;;;;;8.86;41.75;101758.47;5060970;28;45232;-63
2023/04/05 04:03:30;;;;;;;;;30.00;28.00;;;;;8.85;41.65;101759.34;5061277;28;45530;-63
2023/04/05 04:05:56;;;;;;;;;29.00;27.50;;;;;8.84;41.75;101759.34;5060679;28;45212;-63
2023/04/05 04:08:22;;;;;;;;;29.00;25.25;;;;;8.77;41.89;101755.78;5076825;28;45178;-63
2023/04/05 04:10:48;;;;;;;;;31.50;26.25;;;;;8.79;42.08;101761.91;5060626;28;45221;-63
2023/04/05 04:13:13;;;;;;;;;28.00;27.00;;;;;8.78;42.02;101765.41;5093404;27;45262;-63
2023/04/05 04:15:39;;;;;;;;;36.75;29.25;;;;;8.75;41.98;101760.13;5060800;28;45272;-63
2023/04/05 04:18:04;;;;;;;;;30.50;25.00;;;;;8.71;41.91;101756.59;5060926;28;45348;-63
2023/04/05 04:20:30;;;;;;;;;30.25;24.25;;;;;8.70;42.25;101757.44;5060616;28;45346;-63
2023/04/05 04:22:57;;;;;;;;;29.75;24.00;;;;;8.70;42.11;101751.34;5060480;28;45361;-63
2023/04/05 04:25:22;;;;;;;;;23.75;22.00;;;;;8.65;42.06;101753.03;5060455;28;45363;-64
2023/04/05 04:27:49;;;;;;;;;24.50;24.50;;;;;8.66;42.34;101754.81;5060538;27;45346;-63
2023/04/05 04:30:14;;;;;;;;;25.25;22.00;;;;;8.62;42.18;101748.66;5060209;28;45549;-63
2023/04/05 04:32:50;;;;;;;;;25.75;25.00;;;;;8.62;42.27;101752.13;5060419;28;46994;-63
2023/04/05 04:35:19;;;;;;;;;38.00;29.25;;;;;8.61;42.54;101757.38;5060394;28;45237;-64
2023/04/05 04:38:06;;;;;;;;;30.50;24.00;;;;;8.58;42.21;101752.97;5060530;28;45432;-64
2023/04/05 04:40:40;;;;;;;;;44.25;37.25;;;;;8.56;42.18;101744.22;5049758;27;45364;-63
2023/04/05 04:43:15;;;;;;;;;28.75;26.00;;;;;8.54;42.33;101743.34;5060284;28;46131;-63
2023/04/05 04:45:48;;;;;;;;;28.75;25.75;;;;;8.52;42.17;101752.91;5060504;28;45304;-63
2023/04/05 04:48:15;;;;;;;;;35.00;29.00;;;;;8.50;42.22;101754.63;5060361;28;45404;-63
2023/04/05 04:50:44;;;;;;;;;27.50;24.75;;;;;8.49;42.35;101750.28;5059788;28;45301;-63
2023/04/05 04:53:10;;;;;;;;;28.00;25.00;;;;;8.49;42.23;101754.63;5059837;28;46987;-63
2023/04/05 04:55:36;;;;;;;;;28.75;23.25;;;;;8.48;42.40;101752.84;5060016;28;45228;-63
2023/04/05 04:58:09;;;;;;;;;25.25;19.25;;;;;8.45;42.12;101751.94;5060738;28;45290;-63
2023/04/05 05:00:40;;;;;;;;;29.50;25.00;;;;;8.44;42.24;101755.41;5060041;28;45330;-63
2023/04/05 05:03:07;;;;;;;;;28.25;25.50;;;;;8.43;42.17;101752.78;5059937;28;45438;-63
2023/04/05 05:05:32;;;;;;;;;26.75;24.75;;;;;8.41;42.47;101739.66;5059932;28;45314;-64
2023/04/05 05:07:57;;;;;;;;;25.00;21.25;;;;;8.39;42.46;101743.13;5059928;28;45323;-63
2023/04/05 05:10:23;;;;;;;;;25.00;22.00;;;;;8.39;42.50;101753.59;5059156;28;56736;-63
2023/04/05 05:12:48;;;;;;;;;29.50;25.00;;;;;8.38;42.43;101747.50;5059805;28;45296;-63
2023/04/05 05:15:14;;;;;;;;;29.25;25.00;;;;;8.34;42.51;101740.47;5059966;28;45335;-63
2023/04/05 05:17:39;;;;;;;;;26.25;24.00;;;;;8.33;42.38;101746.56;5059779;27;45305;-63
2023/04/05 05:20:09;;;;;;;;;27.00;23.50;;;;;8.33;42.39;101751.81;5059576;28;45173;-63
2023/04/05 05:22:38;;;;;;;;;36.25;30.75;;;;;8.33;42.45;101751.81;5046062;28;47037;-63
2023/04/05 05:25:05;;;;;;;;;28.75;24.50;;;;;8.32;42.46;101746.56;5059560;28;45732;-63
2023/04/05 05:27:30;;;;;;;;;22.75;21.75;;;;;8.31;42.38;101743.03;5059905;28;45213;-63
2023/04/05 05:29:56;;;;;;;;;24.75;22.50;;;;;8.30;42.44;101749.13;5059311;28;54195;-63
2023/04/05 05:32:22;;;;;;;;;30.75;27.00;;;;;8.27;42.46;101746.50;5059661;28;46162;-63
2023/04/05 05:34:47;;;;;;;;;25.25;21.25;;;;;8.28;42.39;101743.88;5059649;28;45257;-64
2023/04/05 05:37:13;;;;;;;;;34.00;29.50;;;;;8.24;42.49;101747.34;5059634;28;45237;-63
2023/04/05 05:39:38;;;;;;;;;32.50;25.50;;;;;8.27;42.51;101749.97;5059500;28;45330;-63
2023/04/05 05:42:04;;;;;;;;;32.25;26.00;;;;;8.26;42.51;101750.88;5062459;28;46208;-63
2023/04/05 05:44:29;;;;;;;;;34.50;28.50;;;;;8.26;42.48;101749.97;5063065;28;45388;-63
2023/04/05 05:46:55;;;;;;;;;34.25;33.00;;;;;8.25;42.70;101759.56;5063300;28;45492;-63
2023/04/05 05:49:20;;;;;;;;;39.75;32.75;;;;;8.24;42.73;101751.72;5062914;28;45381;-64
2023/04/05 05:51:46;;;;;;;;;36.75;32.50;;;;;8.24;42.90;101749.09;5062724;28;46188;-63
2023/04/05 05:54:11;;;;;;;;;36.00;32.50;;;;;8.23;42.75;101750.81;5062803;28;45346;-63
2023/04/05 05:56:36;;;;;;;;;45.50;35.00;;;;;8.21;42.97;101751.66;5062835;28;45241;-64
2023/04/05 05:59:02;;;;;;;;;36.25;33.50;;;;;8.21;43.09;101751.66;5063403;28;45403;-63
2023/04/05 06:01:28;;;;;;;;;36.75;34.00;;;;;8.21;42.96;101749.03;5095223;27;45331;-64
2023/04/05 06:03:54;;;;;;;;;38.75;33.25;;;;;8.19;43.05;101756.88;5062789;28;45330;-64
2023/04/05 06:06:19;;;;;;;;;46.00;36.50;;;;;8.18;43.14;101752.50;5062597;28;45328;-64
2023/04/05 06:08:46;;;;;;;;;45.50;37.00;;;;;8.17;43.03;101748.13;5062414;28;45574;-64
2023/04/05 06:11:22;;;;;;;;;35.50;33.00;;;;;8.16;43.21;101753.34;5062452;28;47166;-64
2023/04/05 06:13:49;;;;;;;;;38.25;33.00;;;;;8.07;43.13;101747.13;5061005;28;45298;-67
2023/04/05 06:16:14;;;;;;;;;49.75;36.50;;;;;8.14;43.30;101762.06;5062784;28;45448;-67
2023/04/05 06:18:40;;;;;;;;;42.25;35.50;;;;;8.10;43.12;101765.50;5062153;28;45386;-72
2023/04/05 06:21:05;;;;;;;;;47.25;37.00;;;;;8.12;43.51;101763.75;5062258;28;46223;-69
2023/04/05 06:23:31;;;;;;;;;43.25;34.75;;;;;8.12;43.28;101762.91;5061982;28;45326;-69
2023/04/05 06:25:56;;;;;;;;;38.50;35.25;;;;;8.11;43.31;101762.03;5062514;28;45473;-68
2023/04/05 06:28:21;;;;;;;;;40.75;36.00;;;;;8.11;43.25;101763.75;5053801;28;45248;-68
2023/04/05 06:30:47;;;;;;;;;42.75;35.00;;;;;8.13;43.62;101769.91;5048292;28;46630;-66
2023/04/05 06:33:12;;;;;;;;;43.25;35.75;;;;;8.11;43.56;101767.28;5058013;28;45807;-65
2023/04/05 06:35:38;;;;;;;;;35.25;32.50;;;;;8.13;43.56;101767.28;5056860;28;45597;-66
2023/04/05 06:38:03;;;;;;;;;35.75;31.75;;;;;8.14;43.67;101769.03;5058186;28;45776;-70
2023/04/05 06:40:28;;;;;;;;;36.75;33.00;;;;;8.16;43.64;101769.06;5058526;28;46356;-66
2023/04/05 06:42:53;;;;;;;;;44.75;35.50;;;;;8.17;43.28;101768.19;5058150;28;54803;-67
2023/04/05 06:45:19;;;;;;;;;42.00;35.00;;;;;8.19;43.66;101777.84;5058182;28;45738;-75
2023/04/05 06:47:44;;;;;;;;;46.25;38.75;;;;;8.21;43.74;101777.84;5058107;28;45516;-67
2023/04/05 06:50:10;;;;;;;;;44.25;32.75;;;;;8.23;43.79;101778.75;5057667;28;46130;-71
2023/04/05 06:52:35;;;;;;;;;39.25;33.50;;;;;8.23;43.60;101777.00;5057420;28;45288;-71
2023/04/05 06:55:00;;;;;;;;;42.75;35.50;;;;;8.27;43.54;101784.03;5058246;28;45230;-71
2023/04/05 06:57:26;;;;;;;;;46.50;37.75;;;;;8.30;43.61;101778.84;5058181;28;45421;-71
2023/04/05 06:59:53;;;;;;;;;38.50;31.75;;;;;8.34;43.99;101773.63;5057720;28;45467;-72
2023/04/05 07:02:20;;;;;;;;;40.25;34.25;;;;;8.37;43.87;101782.41;5039475;28;45907;-70
2023/04/05 07:04:45;;;;;;;;;45.75;36.00;;;;;8.42;43.67;101777.22;5060897;28;45544;-69
2023/04/05 07:07:11;;;;;;;;;44.00;35.00;;;;;8.45;43.77;101778.13;5057818;28;45413;-68
2023/04/05 07:09:37;;;;;;;;;39.50;32.75;;;;;8.50;43.67;101780.81;5057582;28;45482;-69
2023/04/05 07:12:04;;;;;;;;;36.00;32.00;;;;;8.53;43.66;101774.72;5058271;28;45427;-72
2023/04/05 07:14:31;;;;;;;;;37.75;33.50;;;;;8.57;43.67;101784.41;5056964;28;45356;-71
2023/04/05 07:16:57;;;;;;;;;42.50;35.25;;;;;8.60;43.82;101779.19;5057648;28;45549;-74
2023/04/05 07:19:22;;;;;;;;;36.00;33.25;;;;;8.64;43.88;101782.72;5057459;28;45445;-74
2023/04/05 07:21:48;;;;;;;;;42.75;35.00;;;;;8.67;43.93;101780.16;5057272;28;45761;-73
2023/04/05 07:24:13;;;;;;;;;43.75;36.50;;;;;8.72;43.85;101787.19;5057897;28;45861;-76
2023/04/05 07:26:38;;;;;;;;;43.25;35.25;;;;;8.75;43.62;101784.59;5056481;28;45561;-74
2023/04/05 07:29:06;;;;;;;;;34.00;30.25;;;;;8.81;43.65;101790.78;5057781;28;45964;-73
2023/04/05 07:31:32;;;;;;;;;44.50;36.00;;;;;8.85;43.82;101790.78;5057944;28;45560;-73
2023/04/05 07:33:59;;;;;;;;;38.00;33.50;;;;;8.88;43.78;101782.97;5057707;28;45646;-74
2023/04/05 07:36:26;;;;;;;;;41.50;36.50;;;;;8.93;43.92;101785.63;5057245;28;45830;-72
2023/04/05 07:38:52;;;;;;;;;45.00;36.00;;;;;8.97;43.99;101782.19;5057138;28;46272;-71
2023/04/05 07:41:19;;;;;;;;;40.50;36.00;;;;;9.02;43.79;101783.09;5057262;28;45358;-71
2023/04/05 07:43:44;;;;;;;;;48.25;37.00;;;;;9.05;43.94;101785.72;5056878;27;45453;-71
2023/04/05 07:46:10;;;;;;;;;32.00;29.75;;;;;9.11;43.99;101792.78;5057250;28;45492;-73
2023/04/05 07:48:35;;;;;;;;;39.50;33.75;;;;;9.16;43.95;101777.97;5057401;28;45452;-74
2023/04/05 07:51:05;;;;;;;;;40.25;35.25;;;;;9.19;43.92;101779.75;5057362;28;45631;-74
2023/04/05 07:53:31;;;;;;;;;38.75;34.00;;;;;9.23;43.97;101776.25;5058001;28;45831;-73
2023/04/05 07:55:56;;;;;;;;;38.00;33.00;;;;;9.26;43.98;101774.56;5056820;28;45669;-70
2023/04/05 07:58:22;;;;;;;;;43.25;35.25;;;;;9.33;43.72;101778.09;5072508;28;46847;-67
2023/04/05 08:00:48;;;;;;;;;42.00;35.50;;;;;9.35;43.69;101779.00;5057021;28;46512;-69
2023/04/05 08:03:13;;;;;;;;;39.50;34.50;;;;;9.40;43.92;101766.78;5056295;28;45509;-69
2023/04/05 08:05:38;;;;;;;;;29.00;27.50;;;;;9.44;43.94;101773.78;5056728;28;45375;-69
2023/04/05 08:08:04;;;;;;;;;34.25;30.50;;;;;9.43;44.01;101758.06;5057377;28;46307;-70
2023/04/05 08:10:29;;;;;;;;;43.75;33.00;;;;;9.52;44.01;101768.63;5056920;28;45429;-68
2023/04/05 08:12:55;;;;;;;;;35.50;31.75;;;;;9.57;43.97;101773.88;5056977;28;45382;-68
2023/04/05 08:15:20;;;;;;;;;33.00;28.50;;;;;9.60;43.76;101776.53;5057049;28;45255;-67
2023/04/05 08:17:46;;;;;;;;;38.00;32.50;;;;;9.65;43.80;101773.94;5056576;28;45897;-69
2023/04/05 08:20:11;;;;;;;;;32.50;26.00;;;;;9.69;43.76;101780.97;5058581;27;45807;-68
2023/04/05 08:22:37;;;;;;;;;33.25;28.50;;;;;9.71;43.45;101774.88;5056616;28;45427;-69
2023/04/05 08:25:02;;;;;;;;;39.00;33.50;;;;;9.75;43.68;101774.00;5055460;28;45557;-68
2023/04/05 08:27:27;;;;;;;;;38.00;32.25;;;;;9.79;43.72;101779.28;5056832;28;46583;-70
2023/04/05 08:29:53;;;;;;;;;31.75;30.00;;;;;9.82;43.81;101780.16;5056024;28;45561;-69
2023/04/05 08:32:18;;;;;;;;;36.00;29.75;;;;;9.87;43.72;101777.56;5056794;28;45624;-70
2023/04/05 08:34:43;;;;;;;;;34.50;30.75;;;;;9.89;43.56;101771.44;5055817;28;47518;-70
2023/04/05 08:37:09;;;;;;;;;31.25;25.00;;;;;9.95;43.62;101775.88;5056033;28;53368;-70
2023/04/05 08:39:34;;;;;;;;;34.00;30.00;;;;;10.01;43.60;101775.00;5056548;28;45411;-68
2023/04/05 08:42:28;;;;;;;;;27.00;27.00;;;;;10.04;43.65;101781.16;5056705;28;45423;-68
2023/04/05 08:44:56;;;;;;;;;34.75;30.75;;;;;10.06;43.55;101763.66;5056161;28;45397;-69
2023/04/05 08:47:22;;;;;;;;;33.00;28.25;;;;;10.13;43.33;101776.81;5056150;28;46284;-71
2023/04/05 08:49:48;;;;;;;;;34.25;30.00;;;;;10.18;43.46;101778.59;5069693;27;45604;-70
2023/04/05 08:52:14;;;;;;;;;35.50;30.75;;;;;10.22;43.34;101769.84;5051647;28;45441;-71
2023/04/05 08:54:40;;;;;;;;;33.50;23.75;;;;;10.26;43.20;101781.22;5055778;28;45335;-70
2023/04/05 08:57:06;;;;;;;;;37.00;32.25;;;;;10.32;43.33;101781.25;5056312;28;46234;-72
2023/04/05 08:59:36;;;;;;;;;32.75;30.75;;;;;10.37;43.27;101783.94;5056420;28;45444;-72
2023/04/05 09:02:05;;;;;;;;;35.25;28.00;;;;;10.44;43.46;101780.47;5056412;28;45522;-69
2023/04/05 09:04:38;;;;;;;;;37.25;34.00;;;;;10.49;43.39;101781.34;5056633;28;45531;-72
2023/04/05 09:07:05;;;;;;;;;42.75;33.50;;;;;10.54;43.27;101773.47;5052907;28;46088;-73
2023/04/05 09:09:33;;;;;;;;;30.25;29.50;;;;;10.63;43.25;101776.13;5056291;28;45381;-74
2023/04/05 09:12:00;;;;;;;;;32.25;28.75;;;;;10.69;43.37;101773.53;5056215;28;45884;-75
2023/04/05 09:14:26;;;;;;;;;31.75;28.25;;;;;10.77;43.13;101777.88;5055848;28;45511;-75
2023/04/05 09:16:52;;;;;;;;;34.50;27.00;;;;;10.83;43.16;101770.00;5055651;28;46340;-78
2023/04/05 09:19:17;;;;;;;;;39.00;32.00;;;;;10.91;43.21;101775.31;5070968;28;45473;-69
2023/04/05 09:22:04;;;;;;;;;33.75;30.25;;;;;10.98;43.25;101775.31;5048990;28;47115;-70
2023/04/05 09:24:35;;;;;;;;;33.25;28.00;;;;;11.07;43.25;101774.44;5055694;28;45455;-68
2023/04/05 09:27:09;;;;;;;;;26.75;24.50;;;;;11.17;43.12;101770.03;5055245;28;46175;-68
2023/04/05 09:29:35;;;;;;;;;30.00;24.75;;;;;11.25;43.03;101770.06;5055960;28;45513;-66
2023/04/05 09:32:04;;;;;;;;;29.25;28.50;;;;;11.33;43.01;101763.00;5056151;28;45253;-68
2023/04/05 09:34:36;;;;;;;;;33.75;31.25;;;;;11.43;42.92;101767.38;5056170;28;45520;-66
2023/04/05 09:37:02;;;;;;;;;32.50;26.25;;;;;11.55;43.02;101771.75;5056170;27;45452;-68
2023/04/05 09:39:29;;;;;;;;;32.50;27.75;;;;;11.66;42.92;101764.72;5055790;28;45786;-67
2023/04/05 09:42:11;;;;;;;;;34.00;30.25;;;;;11.74;42.99;101753.28;5055542;28;45502;-67
2023/04/05 09:45:00;;;;;;;;;26.00;24.00;;;;;11.97;42.92;101756.75;5054598;28;45703;-66
2023/04/05 09:47:31;;;;;;;;;30.50;27.00;;;;;12.15;43.00;101757.53;5053392;28;47422;-66
2023/04/05 09:50:03;;;;;;;;;29.25;26.50;;;;;12.33;43.18;101757.47;5049983;28;45453;-68
2023/04/05 09:52:30;;;;;;;;;3.00;0.00;;;;;12.54;43.14;101752.06;5087993;27;45421;-74
2023/04/05 09:54:58;;;;;;;;;29.00;23.75;;;;;12.76;43.43;101753.69;5054697;28;45767;-78
2023/04/05 09:57:28;;;;;;;;;27.50;23.25;;;;;13.01;43.12;101749.09;5053810;28;45419;-77
2023/04/05 09:59:54;;;;;;;;;29.50;23.25;;;;;13.29;43.51;101746.19;5054288;28;45546;-70
2023/04/05 10:02:23;;;;;;;;;20.50;20.00;;;;;13.59;43.29;101751.25;5054947;28;46551;-72
2023/04/05 10:04:49;;;;;;;;;24.00;24.00;;;;;13.89;43.56;101744.72;5053975;28;45411;-71
2023/04/05 10:07:18;;;;;;;;;24.25;22.00;;;;;14.19;43.17;101747.88;5053907;28;45542;-71
2023/04/05 10:09:45;;;;;;;;;23.25;23.25;;;;;14.46;43.63;101749.28;5053557;28;45674;-68
2023/04/05 10:12:17;;;;;;;;;28.50;23.50;;;;;14.71;42.96;101751.56;5050878;28;46397;-68
2023/04/05 10:14:42;;;;;;;;;26.25;23.00;;;;;14.92;42.97;101744.22;5052313;28;45815;-77
2023/04/05 10:17:11;;;;;;;;;26.00;23.00;;;;;15.10;42.90;101738.56;5054012;28;45747;-77
2023/04/05 10:19:55;;;;;;;;;28.75;25.00;;;;;15.28;42.72;101739.16;5052907;28;45795;-73
2023/04/05 10:22:32;;;;;;;;;27.00;24.50;;;;;15.43;42.42;101736.25;5049316;28;45501;-72
2023/04/05 10:25:05;;;;;;;;;23.00;21.50;;;;;15.57;42.57;101725.38;5053569;28;45450;-77
2023/04/05 10:27:38;;;;;;;;;21.00;20.00;;;;;15.71;42.12;101735.72;5057873;28;46454;-70
2023/04/05 10:30:07;;;;;;;;;26.00;23.75;;;;;15.84;42.14;101728.41;5058879;28;45439;-70
2023/04/05 10:32:47;;;;;;;;;25.00;23.75;;;;;16.06;42.28;101730.59;5058693;28;45163;-67
2023/04/05 10:35:23;;;;;;;;;26.75;25.75;;;;;16.21;42.00;101725.00;5058096;28;45939;-70
2023/04/05 10:38:10;;;;;;;;;25.00;20.75;;;;;16.46;42.23;101712.94;5073459;28;47351;-67
2023/04/05 10:40:36;;;;;;;;;28.75;23.75;;;;;16.66;42.29;101713.31;5055131;28;45492;-67
2023/04/05 10:43:03;;;;;;;;;27.50;21.00;;;;;16.84;41.94;101709.38;5057659;28;45450;-70
2023/04/05 10:45:31;;;;;;;;;24.75;22.50;;;;;17.17;42.16;101719.19;5057232;28;45339;-70
2023/04/05 10:48:20;;;;;;;;;32.75;25.25;;;;;17.45;41.89;101716.66;5057679;28;45467;-70
2023/04/05 10:50:48;;;;;;;;;21.75;19.25;;;;;17.71;42.26;101702.63;5051186;28;45797;-70
2023/04/05 10:53:15;;;;;;;;;29.25;23.75;;;;;18.02;42.25;101708.88;5060298;28;45590;-76
2023/04/05 10:55:43;;;;;;;;;30.00;22.75;;;;;18.30;41.89;101702.69;5061320;28;45609;-70
2023/04/05 10:58:09;;;;;;;;;29.75;26.50;;;;;18.62;41.88;101698.16;5061814;28;46403;-69
2023/04/05 11:00:35;;;;;;;;;27.50;21.25;;;;;18.91;41.90;101696.34;5061183;28;45256;-71
2023/04/05 11:03:00;;;;;;;;;29.75;26.75;;;;;19.19;41.90;101692.72;5061270;28;45336;-74
2023/04/05 11:05:34;;;;;;;;;32.75;26.00;;;;;19.49;41.48;101691.59;5060972;28;49106;-66
2023/04/05 11:08:07;;;;;;;;;27.00;21.50;;;;;19.81;41.58;101694.88;5061382;28;46001;-68
2023/04/05 11:10:38;;;;;;;;;23.75;22.75;;;;;20.11;41.47;101691.97;5093376;27;45401;-70
2023/04/05 11:13:06;;;;;;;;;30.75;27.75;;;;;20.44;41.97;101699.56;5059794;28;45301;-68
2023/04/05 11:15:33;;;;;;;;;32.50;26.25;;;;;20.77;41.94;101692.94;5056811;28;45543;-69
2023/04/05 11:18:24;;;;;;;;;15.75;15.75;;;;;21.11;41.69;101697.69;5060224;28;46089;-67